La Grande, Washington
Current Conditions -  °F | °C
As of 7:22 AM on Monday 22 Dec 2014 (Local Time) from KGRF Reporting Station
Haze Haze  
Wind Chill: 39°   Ceiling: Unl
Heat Index: 39°   Visibility: 2mi
Dew Point: 39°   Wind: 2mph
Humidity: 100%   Direction: 160°SSE
Pressure: 30.3"   Gusts: NA
Location:  46.83°N, 122.32°W
Report Text: KGRF 221522Z 16002KT 2SM BR FEW002 FEW180 04/04 A3030 RMK AO2A VIS SE 1 WND DATA ESTMD $
Loading
Personal Weather Stations






























Interactive Weather Map New forecast layout! Learn more

10-Day Weather Forecast

Advertisements
Track Severe Weather on mobile